createdAt,value
2017-12-29T00:02:06.782Z,-1.20
2017-12-29T00:04:33.317Z,-1.30
2017-12-29T00:07:00.285Z,-1.20
2017-12-29T00:09:26.817Z,-1.20
2017-12-29T00:11:53.731Z,-1.20
2017-12-29T00:14:20.337Z,-1.20
2017-12-29T00:16:46.877Z,-1.20
2017-12-29T00:19:13.429Z,-1.20
2017-12-29T00:21:40.122Z,-1.20
2017-12-29T00:24:06.686Z,-1.20
2017-12-29T00:26:33.216Z,-1.10
2017-12-29T00:28:59.818Z,-1.10
2017-12-29T00:31:26.346Z,-1.10
2017-12-29T00:33:53.261Z,-1.10
2017-12-29T00:36:19.854Z,-1.10
2017-12-29T00:38:46.769Z,-1.20
2017-12-29T00:41:13.314Z,-1.20
2017-12-29T00:43:39.901Z,-1.20
2017-12-29T00:46:06.817Z,-1.20
2017-12-29T00:48:33.353Z,-1.20
2017-12-29T00:50:59.954Z,-1.20
2017-12-29T00:53:26.874Z,-1.20
2017-12-29T00:55:53.421Z,-1.20
2017-12-29T00:58:20.007Z,-1.20
2017-12-29T01:00:46.918Z,-1.20
2017-12-29T01:03:13.462Z,-1.20
2017-12-29T01:05:40.475Z,-1.20
2017-12-29T01:08:07.385Z,-1.30
2017-12-29T01:10:33.909Z,-1.20
2017-12-29T01:13:00.496Z,-1.30
2017-12-29T01:15:27.048Z,-1.20
2017-12-29T01:17:53.589Z,-1.30
2017-12-29T01:20:20.290Z,-1.30
2017-12-29T01:22:46.861Z,-1.30
2017-12-29T01:25:13.406Z,-1.30
2017-12-29T01:27:39.992Z,-1.30
2017-12-29T01:30:06.539Z,-1.40
2017-12-29T01:32:33.441Z,-1.30
2017-12-29T01:35:00.114Z,-1.30
2017-12-29T01:37:26.651Z,-1.30
2017-12-29T01:39:53.197Z,-1.30
2017-12-29T01:42:19.797Z,-1.30
2017-12-29T01:44:46.709Z,-1.30
2017-12-29T01:47:13.289Z,-1.30
2017-12-29T01:49:39.895Z,-1.30
2017-12-29T01:52:06.441Z,-1.40
2017-12-29T01:54:32.977Z,-1.40
2017-12-29T01:56:59.653Z,-1.40
2017-12-29T01:59:26.198Z,-1.40
2017-12-29T02:01:52.741Z,-1.40
2017-12-29T02:04:19.352Z,-1.40
2017-12-29T02:06:45.897Z,-1.40
2017-12-29T02:09:12.428Z,-1.40
2017-12-29T02:11:39.417Z,-1.40
2017-12-29T02:14:05.944Z,-1.40
2017-12-29T02:16:32.485Z,-1.40
2017-12-29T02:18:59.465Z,-1.40
2017-12-29T02:21:26.026Z,-1.40
2017-12-29T02:23:52.598Z,-1.40
2017-12-29T02:26:19.201Z,-1.40
2017-12-29T02:28:45.747Z,-1.50
2017-12-29T02:31:12.274Z,-1.50
2017-12-29T02:33:39.241Z,-1.50
2017-12-29T02:36:05.785Z,-1.50
2017-12-29T02:38:32.325Z,-1.50
2017-12-29T02:40:59.281Z,-1.50
2017-12-29T02:43:26.181Z,-1.50
2017-12-29T02:45:53.655Z,-1.50
2017-12-29T02:48:20.249Z,-1.60
2017-12-29T02:50:47.150Z,-1.60
2017-12-29T02:53:13.694Z,-1.60
2017-12-29T02:55:40.286Z,-1.60
2017-12-29T02:58:06.837Z,-1.70
2017-12-29T03:00:33.745Z,-1.70
2017-12-29T03:03:00.353Z,-1.70
2017-12-29T03:05:27.277Z,-1.70
2017-12-29T03:07:53.822Z,-1.70
2017-12-29T03:10:20.418Z,-1.70
2017-12-29T03:12:46.944Z,-1.70
2017-12-29T03:15:13.853Z,-1.70
2017-12-29T03:17:40.534Z,-1.70
2017-12-29T03:20:07.089Z,-1.70
2017-12-29T03:22:33.621Z,-1.70
2017-12-29T03:25:00.250Z,-1.70
2017-12-29T03:27:26.784Z,-1.60
2017-12-29T03:29:53.336Z,-1.60
2017-12-29T03:32:19.917Z,-1.70
2017-12-29T03:34:46.457Z,-1.70
2017-12-29T03:37:12.997Z,-1.70
2017-12-29T03:39:39.626Z,-1.70
2017-12-29T03:42:06.168Z,-1.70
2017-12-29T03:44:32.708Z,-1.80
2017-12-29T03:46:59.390Z,-1.80
2017-12-29T03:49:25.931Z,-1.80
2017-12-29T03:51:52.470Z,-1.80
2017-12-29T03:54:19.083Z,-1.80
2017-12-29T03:56:45.634Z,-1.80
2017-12-29T03:59:12.157Z,-1.80
2017-12-29T04:01:39.114Z,-1.70
2017-12-29T04:04:06.043Z,-1.60
2017-12-29T04:06:32.588Z,-1.60
2017-12-29T04:08:59.214Z,-1.70
2017-12-29T04:11:25.745Z,-1.70
2017-12-29T04:13:52.272Z,-1.80
2017-12-29T04:16:18.865Z,-1.80
2017-12-29T04:18:45.417Z,-1.80
2017-12-29T04:21:11.957Z,-1.80
2017-12-29T04:23:38.645Z,-1.80
2017-12-29T04:26:05.181Z,-1.90
2017-12-29T04:28:31.713Z,-1.90
2017-12-29T04:30:58.313Z,-1.90
2017-12-29T04:33:24.853Z,-1.80
2017-12-29T04:35:51.389Z,-1.80
2017-12-29T04:38:18.357Z,-1.80
2017-12-29T04:40:44.889Z,-1.80
2017-12-29T04:43:11.793Z,-1.80
2017-12-29T04:45:38.469Z,-1.80
2017-12-29T04:48:05.013Z,-1.80
2017-12-29T04:50:31.553Z,-1.80
2017-12-29T04:52:58.133Z,-1.80
2017-12-29T04:55:25.053Z,-1.90
2017-12-29T04:57:51.701Z,-1.90
2017-12-29T05:00:19.346Z,-1.80
2017-12-29T05:02:46.020Z,-1.80
2017-12-29T05:05:12.573Z,-1.80
2017-12-29T05:07:39.173Z,-1.80
2017-12-29T05:10:05.721Z,-1.80
2017-12-29T05:12:32.258Z,-1.90
2017-12-29T05:14:59.233Z,-1.80
2017-12-29T05:17:25.773Z,-1.90
2017-12-29T05:19:52.314Z,-1.80
2017-12-29T05:22:19.282Z,-1.90
2017-12-29T05:24:45.851Z,-1.90
2017-12-29T05:27:12.420Z,-1.90
2017-12-29T05:29:39.022Z,-1.90
2017-12-29T05:32:05.569Z,-1.90
2017-12-29T05:34:32.118Z,-1.80
2017-12-29T05:36:58.720Z,-1.80
2017-12-29T05:39:25.285Z,-1.80
2017-12-29T05:41:52.201Z,-1.80
2017-12-29T05:44:18.789Z,-1.80
2017-12-29T05:46:45.698Z,-1.90
2017-12-29T05:49:12.270Z,-1.80
2017-12-29T05:51:38.865Z,-1.80
2017-12-29T05:54:05.426Z,-1.90
2017-12-29T05:56:31.961Z,-2.00
2017-12-29T05:58:58.557Z,-2.00
2017-12-29T06:01:25.118Z,-2.10
2017-12-29T06:03:51.662Z,-2.10
2017-12-29T06:06:18.264Z,-2.20
2017-12-29T06:08:44.798Z,-2.20
2017-12-29T06:11:11.336Z,-2.30
2017-12-29T06:13:38.285Z,-2.40
2017-12-29T06:16:05.192Z,-2.50
2017-12-29T06:18:31.745Z,-2.50
2017-12-29T06:20:58.494Z,-2.50
2017-12-29T06:23:32.117Z,-2.60
2017-12-29T06:25:58.746Z,-2.60
2017-12-29T06:28:25.285Z,-2.70
2017-12-29T06:30:51.878Z,-2.70
2017-12-29T06:33:18.484Z,-2.70
2017-12-29T06:35:45.025Z,-2.70
2017-12-29T06:38:11.565Z,-2.70
2017-12-29T06:40:38.161Z,-2.70
2017-12-29T06:43:04.709Z,-2.70
2017-12-29T06:45:31.258Z,-2.60
2017-12-29T06:47:57.897Z,-2.60
2017-12-29T06:50:24.441Z,-2.60
2017-12-29T06:52:50.994Z,-2.60
2017-12-29T06:55:17.589Z,-2.60
2017-12-29T06:57:44.150Z,-2.70
2017-12-29T07:00:10.694Z,-2.80
2017-12-29T07:02:37.294Z,-2.80
2017-12-29T07:05:03.829Z,-2.80
2017-12-29T07:07:30.369Z,-2.70
2017-12-29T07:09:57.012Z,-2.70
2017-12-29T07:12:23.549Z,-2.70
2017-12-29T07:14:50.097Z,-2.80
2017-12-29T07:17:16.698Z,-2.80
2017-12-29T07:19:43.602Z,-2.70
2017-12-29T07:22:10.144Z,-2.70
2017-12-29T07:24:36.907Z,-2.70
2017-12-29T07:27:03.530Z,-2.70
2017-12-29T07:29:30.065Z,-2.70
2017-12-29T07:31:56.754Z,-2.70
2017-12-29T07:34:23.374Z,-2.70
2017-12-29T07:36:50.156Z,-2.70
2017-12-29T07:39:16.773Z,-2.70
2017-12-29T07:41:43.352Z,-2.60
2017-12-29T07:44:10.000Z,-2.50
2017-12-29T07:46:36.606Z,-2.40
2017-12-29T07:49:03.299Z,-2.30
2017-12-29T07:51:29.839Z,-2.30
2017-12-29T07:53:56.629Z,-2.20
2017-12-29T07:56:23.204Z,-2.30
2017-12-29T07:58:49.870Z,-2.20
2017-12-29T08:01:16.453Z,-2.30
2017-12-29T08:03:43.077Z,-2.40
2017-12-29T08:06:09.714Z,-2.40
2017-12-29T08:08:36.390Z,-2.40
2017-12-29T08:11:03.013Z,-2.30
2017-12-29T08:13:29.557Z,-2.30
2017-12-29T08:15:56.149Z,-2.30
2017-12-29T08:18:22.709Z,-2.30
2017-12-29T08:20:49.257Z,-2.20
2017-12-29T08:23:16.050Z,-2.00
2017-12-29T08:25:42.629Z,-1.90
2017-12-29T08:28:09.162Z,-1.60
2017-12-29T08:30:35.858Z,-1.50
2017-12-29T08:33:02.406Z,-1.50
2017-12-29T08:35:29.327Z,-1.40
2017-12-29T08:37:55.974Z,-1.40
2017-12-29T08:40:22.523Z,-1.20
2017-12-29T08:42:49.065Z,-1.20
2017-12-29T08:45:15.661Z,-1.00
2017-12-29T08:47:42.576Z,-0.60
2017-12-29T08:50:09.120Z,-0.60
2017-12-29T08:52:35.725Z,-0.40
2017-12-29T08:55:02.271Z,-0.10
2017-12-29T08:57:28.832Z,0.00
2017-12-29T08:59:55.605Z,-0.10
2017-12-29T09:02:22.216Z,0.00
2017-12-29T09:04:49.161Z,0.20
2017-12-29T09:07:16.207Z,0.10
2017-12-29T09:09:42.826Z,0.10
2017-12-29T09:12:09.511Z,-0.10
2017-12-29T09:14:36.201Z,-0.20
2017-12-29T09:17:02.761Z,-0.40
2017-12-29T09:19:29.306Z,-0.40
2017-12-29T09:21:55.991Z,-0.20
2017-12-29T09:24:23.917Z,-0.30
2017-12-29T09:26:52.578Z,-0.30
2017-12-29T09:29:22.425Z,-0.10
2017-12-29T09:31:52.806Z,-0.10
2017-12-29T09:34:20.889Z,-0.10
2017-12-29T09:36:48.372Z,0.00
2017-12-29T09:39:16.495Z,0.10
2017-12-29T09:41:51.327Z,0.20
2017-12-29T09:44:20.092Z,0.30
2017-12-29T09:46:47.463Z,0.40
2017-12-29T09:49:15.475Z,0.20
2017-12-29T09:51:42.668Z,0.20
2017-12-29T09:54:10.052Z,0.30
2017-12-29T09:56:38.401Z,0.40
2017-12-29T09:59:08.381Z,0.40
2017-12-29T10:01:35.445Z,0.40
2017-12-29T10:04:03.521Z,0.40
2017-12-29T10:06:31.970Z,0.30
2017-12-29T10:08:59.281Z,0.40
2017-12-29T10:11:31.139Z,0.50
2017-12-29T10:14:02.711Z,0.60
2017-12-29T10:16:30.201Z,0.60
2017-12-29T10:19:01.291Z,0.70
2017-12-29T10:21:30.456Z,0.80
2017-12-29T10:23:59.140Z,0.70
2017-12-29T10:26:27.594Z,0.80
2017-12-29T10:28:54.826Z,0.80
2017-12-29T10:31:24.866Z,0.80
2017-12-29T10:33:52.490Z,0.70
2017-12-29T10:36:21.792Z,0.80
2017-12-29T10:38:51.175Z,1.00
2017-12-29T10:41:18.409Z,1.10
2017-12-29T10:43:45.419Z,1.20
2017-12-29T10:46:11.953Z,1.20
2017-12-29T10:48:38.866Z,1.10
2017-12-29T10:51:05.482Z,1.10
2017-12-29T10:53:32.045Z,1.10
2017-12-29T10:55:58.594Z,1.10
2017-12-29T10:58:25.282Z,1.20
2017-12-29T11:00:51.850Z,1.20
2017-12-29T11:03:18.771Z,1.40
2017-12-29T11:05:45.365Z,1.40
2017-12-29T11:08:11.929Z,1.30
2017-12-29T11:10:38.482Z,1.20
2017-12-29T11:13:05.064Z,1.10
2017-12-29T11:15:31.593Z,1.10
2017-12-29T11:17:58.196Z,1.30
2017-12-29T11:20:25.177Z,1.60
2017-12-29T11:22:51.734Z,1.60
2017-12-29T11:25:18.386Z,1.80
2017-12-29T11:27:44.992Z,1.90
2017-12-29T11:30:11.930Z,2.10
2017-12-29T11:32:38.474Z,2.10
2017-12-29T11:35:05.081Z,2.20
2017-12-29T11:37:31.633Z,2.10
2017-12-29T11:39:58.197Z,2.30
2017-12-29T11:42:24.821Z,2.40
2017-12-29T11:44:51.374Z,2.40
2017-12-29T11:47:17.925Z,2.10
2017-12-29T11:49:44.520Z,2.20
2017-12-29T11:52:11.441Z,2.30
2017-12-29T11:54:37.985Z,2.30
2017-12-29T11:57:04.621Z,2.30
2017-12-29T11:59:31.195Z,2.30
2017-12-29T12:01:57.781Z,2.30
2017-12-29T12:04:24.838Z,2.50
2017-12-29T12:06:51.762Z,2.60
2017-12-29T12:09:18.318Z,2.60
2017-12-29T12:11:44.917Z,2.50
2017-12-29T12:14:11.506Z,2.50
2017-12-29T12:16:38.069Z,2.30
2017-12-29T12:19:05.074Z,1.80
2017-12-29T12:21:31.619Z,1.80
2017-12-29T12:23:58.302Z,1.70
2017-12-29T12:26:24.961Z,1.60
2017-12-29T12:28:51.617Z,1.70
2017-12-29T12:31:18.154Z,1.80
2017-12-29T12:33:44.742Z,1.80
2017-12-29T12:36:11.277Z,1.80
2017-12-29T12:38:38.182Z,2.20
2017-12-29T12:41:04.793Z,2.20
2017-12-29T12:43:31.401Z,2.40
2017-12-29T12:45:57.951Z,2.60
2017-12-29T12:48:24.566Z,2.70
2017-12-29T12:50:51.114Z,2.80
2017-12-29T12:53:17.670Z,2.90
2017-12-29T12:55:44.265Z,3.00
2017-12-29T12:58:11.189Z,2.80
2017-12-29T13:00:37.737Z,2.80
2017-12-29T13:03:04.358Z,2.70
2017-12-29T13:05:30.940Z,2.90
2017-12-29T13:07:57.504Z,2.90
2017-12-29T13:10:24.461Z,2.70
2017-12-29T13:12:51.389Z,2.60
2017-12-29T13:15:17.976Z,2.60
2017-12-29T13:17:44.968Z,2.60
2017-12-29T13:20:11.514Z,2.60
2017-12-29T13:22:38.068Z,2.50
2017-12-29T13:25:04.770Z,2.30
2017-12-29T13:27:31.736Z,2.00
2017-12-29T13:29:58.673Z,2.00
2017-12-29T13:32:25.282Z,2.00
2017-12-29T13:34:51.833Z,1.90
2017-12-29T13:37:18.374Z,2.00
2017-12-29T13:39:45.069Z,2.00
2017-12-29T13:42:12.022Z,2.00
2017-12-29T13:44:38.950Z,1.90
2017-12-29T13:47:05.653Z,1.90
2017-12-29T13:49:32.201Z,1.80
2017-12-29T13:51:58.749Z,1.70
2017-12-29T13:54:25.458Z,1.70
2017-12-29T13:56:52.018Z,1.60
2017-12-29T13:59:25.499Z,1.60
2017-12-29T14:01:52.081Z,1.60
2017-12-29T14:04:18.621Z,1.60
2017-12-29T14:06:45.258Z,1.60
2017-12-29T14:09:11.801Z,1.40
2017-12-29T14:11:38.357Z,1.20
2017-12-29T14:14:04.973Z,1.10
2017-12-29T14:16:31.521Z,1.00
2017-12-29T14:18:58.074Z,1.00
2017-12-29T14:21:24.674Z,1.00
2017-12-29T14:23:51.601Z,1.00
2017-12-29T14:26:18.235Z,1.00
2017-12-29T14:28:44.853Z,1.00
2017-12-29T14:31:11.401Z,0.90
2017-12-29T14:33:37.953Z,0.90
2017-12-29T14:36:04.566Z,0.90
2017-12-29T14:38:31.490Z,0.70
2017-12-29T14:40:58.058Z,0.70
2017-12-29T14:43:24.658Z,0.70
2017-12-29T14:45:51.233Z,0.60
2017-12-29T14:48:17.781Z,0.70
2017-12-29T14:50:44.394Z,0.50
2017-12-29T14:53:10.966Z,0.30
2017-12-29T14:55:37.501Z,0.20
2017-12-29T14:58:04.114Z,-0.10
2017-12-29T15:00:31.046Z,-0.30
2017-12-29T15:02:57.597Z,-0.40
2017-12-29T15:05:24.209Z,-0.50
2017-12-29T15:07:50.778Z,-0.50
2017-12-29T15:10:17.344Z,-0.50
2017-12-29T15:12:43.954Z,-0.50
2017-12-29T15:15:10.493Z,-0.60
2017-12-29T15:17:37.171Z,-0.60
2017-12-29T15:20:04.061Z,-0.90
2017-12-29T15:22:31.051Z,-1.00
2017-12-29T15:24:57.598Z,-1.00
2017-12-29T15:27:24.365Z,-1.30
2017-12-29T15:29:50.921Z,-1.50
2017-12-29T15:32:17.466Z,-1.60
2017-12-29T15:34:44.062Z,-1.70
2017-12-29T15:37:10.614Z,-1.70
2017-12-29T15:39:37.164Z,-1.70
2017-12-29T15:42:03.893Z,-1.70
2017-12-29T15:44:30.821Z,-1.70
2017-12-29T15:46:57.361Z,-1.70
2017-12-29T15:49:23.963Z,-1.70
2017-12-29T15:51:50.882Z,-1.70
2017-12-29T15:54:17.438Z,-1.70
2017-12-29T15:56:44.049Z,-1.70
2017-12-29T15:59:10.596Z,-1.60
2017-12-29T16:04:32.704Z,-1.80
2017-12-29T16:06:59.322Z,-1.80
2017-12-29T16:09:25.861Z,-2.00
2017-12-29T16:11:52.499Z,-2.10
2017-12-29T16:14:19.098Z,-2.20
2017-12-29T16:16:45.657Z,-2.20
2017-12-29T16:19:12.580Z,-2.30
2017-12-29T16:21:39.193Z,-2.30
2017-12-29T16:24:05.737Z,-2.20
2017-12-29T16:26:32.388Z,-2.20
2017-12-29T16:28:59.034Z,-2.10
2017-12-29T16:31:25.594Z,-2.10
2017-12-29T16:33:52.153Z,-2.20
2017-12-29T16:36:18.789Z,-2.30
2017-12-29T16:38:45.330Z,-2.30
2017-12-29T16:41:11.901Z,-2.20
2017-12-29T16:43:38.661Z,-2.10
2017-12-29T16:46:05.261Z,-2.00
2017-12-29T16:48:31.854Z,-1.90
2017-12-29T16:50:58.485Z,-2.00
2017-12-29T16:53:25.017Z,-2.00
2017-12-29T16:55:51.572Z,-1.90
2017-12-29T16:58:18.286Z,-1.90
2017-12-29T17:00:45.210Z,-1.90
2017-12-29T17:03:11.811Z,-1.90
2017-12-29T17:05:38.431Z,-1.90
2017-12-29T17:08:05.025Z,-1.90
2017-12-29T17:10:31.605Z,-1.90
2017-12-29T17:12:58.218Z,-2.00
2017-12-29T17:15:24.773Z,-2.10
2017-12-29T17:17:51.314Z,-2.10
2017-12-29T17:20:17.949Z,-2.10
2017-12-29T17:22:44.873Z,-2.10
2017-12-29T17:25:11.425Z,-2.10
2017-12-29T17:27:38.129Z,-2.10
2017-12-29T17:30:04.682Z,-2.10
2017-12-29T17:32:31.242Z,-2.10
2017-12-29T17:34:57.858Z,-2.00
2017-12-29T17:37:24.406Z,-2.00
2017-12-29T17:39:50.965Z,-2.00
2017-12-29T17:42:17.593Z,-2.00
2017-12-29T17:44:44.146Z,-2.00
2017-12-29T17:47:10.689Z,-1.90
2017-12-29T17:49:37.369Z,-1.90
2017-12-29T17:52:03.973Z,-1.80
2017-12-29T17:54:30.899Z,-1.70
2017-12-29T17:56:57.502Z,-1.70
2017-12-29T17:59:24.058Z,-1.70
2017-12-29T18:01:50.609Z,-1.70
2017-12-29T18:04:17.192Z,-1.80
2017-12-29T18:06:43.748Z,-1.80
2017-12-29T18:09:10.293Z,-1.80
2017-12-29T18:11:36.906Z,-1.90
2017-12-29T18:14:03.464Z,-1.90
2017-12-29T18:16:30.041Z,-1.90
2017-12-29T18:18:57.049Z,-1.80
2017-12-29T18:21:23.622Z,-1.80
2017-12-29T18:23:50.233Z,-1.70
2017-12-29T18:26:17.425Z,-1.70
2017-12-29T18:28:44.010Z,-1.70
2017-12-29T18:31:10.937Z,-1.60
2017-12-29T18:33:37.601Z,-1.60
2017-12-29T18:36:04.158Z,-1.70
2017-12-29T18:38:31.082Z,-1.70
2017-12-29T18:40:57.721Z,-1.70
2017-12-29T18:43:24.256Z,-1.70
2017-12-29T18:45:50.811Z,-1.60
2017-12-29T18:48:17.426Z,-1.60
2017-12-29T18:50:44.346Z,-1.50
2017-12-29T18:53:10.900Z,-1.60
2017-12-29T18:55:37.509Z,-1.60
2017-12-29T18:58:04.057Z,-1.50
2017-12-29T19:00:30.606Z,-1.50
2017-12-29T19:02:58.049Z,-1.40
2017-12-29T19:05:24.594Z,-1.40
2017-12-29T19:07:51.139Z,-1.40
2017-12-29T19:10:17.745Z,-1.50
2017-12-29T19:12:44.289Z,-1.40
2017-12-29T19:15:10.825Z,-1.30
2017-12-29T19:17:37.422Z,-1.30
2017-12-29T19:20:04.350Z,-1.40
2017-12-29T19:22:30.965Z,-1.40
2017-12-29T19:24:57.557Z,-1.20
2017-12-29T19:27:31.515Z,-1.20
2017-12-29T19:29:58.437Z,-1.20
2017-12-29T19:32:25.576Z,-1.30
2017-12-29T19:34:52.421Z,-1.30
2017-12-29T19:37:19.046Z,-1.50
2017-12-29T19:39:45.627Z,-1.60
2017-12-29T19:42:12.176Z,-1.70
2017-12-29T19:44:38.794Z,-1.70
2017-12-29T19:47:05.337Z,-1.80
2017-12-29T19:49:31.886Z,-1.80
2017-12-29T19:51:58.485Z,-1.90
2017-12-29T19:54:25.402Z,-1.90
2017-12-29T19:56:51.941Z,-1.90
2017-12-29T19:59:18.549Z,-1.90
2017-12-29T20:01:45.486Z,-1.80
2017-12-29T20:04:12.037Z,-1.80
2017-12-29T20:06:39.673Z,-1.80
2017-12-29T20:09:06.241Z,-1.80
2017-12-29T20:11:32.793Z,-1.80
2017-12-29T20:13:59.521Z,-1.60
2017-12-29T20:16:26.378Z,-1.60
2017-12-29T20:18:53.124Z,-1.60
2017-12-29T20:21:19.830Z,-1.70
2017-12-29T20:23:46.755Z,-1.60
2017-12-29T20:26:13.320Z,-1.60
2017-12-29T20:28:39.974Z,-1.60
2017-12-29T20:31:06.959Z,-1.60
2017-12-29T20:33:33.535Z,-1.60
2017-12-29T20:36:00.149Z,-1.60
2017-12-29T20:38:26.707Z,-1.50
2017-12-29T20:40:53.378Z,-1.60
2017-12-29T20:43:21.033Z,-1.60
2017-12-29T20:45:47.602Z,-1.60
2017-12-29T20:48:14.155Z,-1.40
2017-12-29T20:50:40.758Z,-1.30
2017-12-29T20:53:07.770Z,-1.40
2017-12-29T20:55:34.403Z,-1.40
2017-12-29T20:58:01.402Z,-1.40
2017-12-29T21:00:28.419Z,-1.30
2017-12-29T21:02:55.065Z,-1.30
2017-12-29T21:05:21.790Z,-1.40
2017-12-29T21:07:48.365Z,-1.30
2017-12-29T21:10:14.990Z,-1.40
2017-12-29T21:12:41.868Z,-1.50
2017-12-29T21:15:08.494Z,-1.50
2017-12-29T21:17:35.049Z,-1.60
2017-12-29T21:20:01.715Z,-1.50
2017-12-29T21:22:28.365Z,-1.60
2017-12-29T21:24:54.934Z,-1.80
2017-12-29T21:27:21.526Z,-1.80
2017-12-29T21:29:48.208Z,-1.80
2017-12-29T21:32:14.843Z,-1.70
2017-12-29T21:34:41.613Z,-1.60
2017-12-29T21:37:08.234Z,-1.70
2017-12-29T21:39:34.808Z,-1.60
2017-12-29T21:42:01.663Z,-1.60
2017-12-29T21:44:28.286Z,-1.70
2017-12-29T21:46:54.846Z,-1.60
2017-12-29T21:49:21.467Z,-1.50
2017-12-29T21:51:48.015Z,-1.60
2017-12-29T21:54:14.573Z,-1.70
2017-12-29T21:56:41.455Z,-1.70
2017-12-29T21:59:08.105Z,-1.70
2017-12-29T22:01:35.177Z,-1.60
2017-12-29T22:04:01.815Z,-1.50
2017-12-29T22:06:28.463Z,-1.50
2017-12-29T22:08:55.037Z,-1.40
2017-12-29T22:11:21.761Z,-1.30
2017-12-29T22:13:48.293Z,-1.30
2017-12-29T22:16:14.848Z,-1.30
2017-12-29T22:18:42.405Z,-1.40
2017-12-29T22:21:08.947Z,-1.30
2017-12-29T22:23:35.482Z,-1.30
2017-12-29T22:26:02.082Z,-1.30
2017-12-29T22:28:28.624Z,-1.20
2017-12-29T22:30:55.204Z,-1.20
2017-12-29T22:33:29.021Z,-1.20
2017-12-29T22:36:02.106Z,-1.10
2017-12-29T22:38:35.247Z,-1.10
2017-12-29T22:41:01.906Z,-1.10
2017-12-29T22:43:28.510Z,-1.00
2017-12-29T22:45:55.232Z,-0.90
2017-12-29T22:48:21.809Z,-0.90
2017-12-29T22:50:48.357Z,-0.80
2017-12-29T22:53:14.949Z,-0.80
2017-12-29T22:55:41.485Z,-0.70
2017-12-29T22:58:08.033Z,-0.60
2017-12-29T23:00:34.650Z,-0.50
2017-12-29T23:03:01.205Z,-0.40
2017-12-29T23:05:28.133Z,-0.20
2017-12-29T23:07:54.748Z,-0.20
2017-12-29T23:10:21.297Z,0.00
2017-12-29T23:12:47.833Z,0.20
2017-12-29T23:15:14.445Z,0.30
2017-12-29T23:17:40.986Z,0.40
2017-12-29T23:20:07.607Z,0.50
2017-12-29T23:22:34.257Z,0.50
2017-12-29T23:25:00.802Z,0.60
2017-12-29T23:27:27.358Z,0.70
2017-12-29T23:29:53.991Z,0.70
2017-12-29T23:32:20.525Z,0.80
2017-12-29T23:34:47.073Z,0.80
2017-12-29T23:37:13.693Z,0.90
2017-12-29T23:39:40.236Z,1.00
2017-12-29T23:42:07.177Z,1.00
2017-12-29T23:44:33.778Z,1.10
2017-12-29T23:47:00.329Z,1.00
2017-12-29T23:49:26.897Z,1.00
2017-12-29T23:51:53.505Z,1.00
2017-12-29T23:54:20.066Z,0.90
2017-12-29T23:56:46.621Z,1.00
2017-12-29T23:59:13.218Z,1.00
